createdAt,value
2023-01-01T00:00:50.962Z,0
2023-01-01T00:10:28.356Z,0
2023-01-01T00:20:06.168Z,0
2023-01-01T00:29:43.480Z,0
2023-01-01T00:39:20.926Z,0
2023-01-01T00:48:57.909Z,0
2023-01-01T00:58:35.215Z,0
2023-01-01T01:08:12.810Z,0
2023-01-01T01:17:50.086Z,0
2023-01-01T01:27:27.366Z,0
2023-01-01T01:37:04.379Z,0
2023-01-01T01:46:41.541Z,0
2023-01-01T01:56:18.515Z,0
2023-01-01T02:05:55.347Z,0
2023-01-01T02:15:32.282Z,0
2023-01-01T02:25:09.308Z,0
2023-01-01T02:34:46.647Z,0
2023-01-01T02:44:23.539Z,0
2023-01-01T02:54:00.888Z,0
2023-01-01T03:03:38.508Z,0
2023-01-01T03:13:16.079Z,0
2023-01-01T03:22:53.571Z,0
2023-01-01T03:32:31.034Z,0
2023-01-01T03:42:08.549Z,0
2023-01-01T03:51:45.975Z,0
2023-01-01T04:01:23.075Z,0
2023-01-01T04:11:00.198Z,0
2023-01-01T04:20:38.113Z,0
2023-01-01T04:30:15.877Z,0
2023-01-01T04:39:53.374Z,0
2023-01-01T04:49:31.276Z,0
2023-01-01T04:59:09.356Z,0
2023-01-01T05:08:47.505Z,0
2023-01-01T05:18:25.280Z,0
2023-01-01T05:28:02.588Z,0
2023-01-01T05:37:40.049Z,0
2023-01-01T05:47:17.733Z,0
2023-01-01T05:56:54.982Z,0
2023-01-01T06:06:32.543Z,0
2023-01-01T06:16:10.230Z,0
2023-01-01T06:25:47.451Z,0
2023-01-01T06:35:24.987Z,0
2023-01-01T06:45:02.617Z,0.83
2023-01-01T06:54:39.921Z,3.33
2023-01-01T07:04:17.108Z,13.33
2023-01-01T07:13:53.781Z,40
2023-01-01T07:23:31.187Z,87.5
2023-01-01T07:33:08.571Z,146.67
2023-01-01T07:42:45.999Z,255.83
2023-01-01T07:52:23.826Z,415.83
2023-01-01T08:02:01.657Z,478.33
2023-01-01T08:11:39.704Z,565
2023-01-01T08:21:17.850Z,451.67
2023-01-01T08:30:55.537Z,944.17
2023-01-01T08:40:33.530Z,915
2023-01-01T08:50:11.162Z,999.17
2023-01-01T08:59:48.847Z,1485.83
2023-01-01T09:09:31.234Z,1622.5
2023-01-01T09:19:04.551Z,1670
2023-01-01T09:28:42.567Z,1860
2023-01-01T09:38:20.527Z,1795
2023-01-01T09:47:58.247Z,2221.67
2023-01-01T09:57:35.907Z,2391.67
2023-01-01T10:07:13.921Z,2675.83
2023-01-01T10:16:52.270Z,3180
2023-01-01T10:26:30.980Z,3706.67
2023-01-01T10:36:09.336Z,3838.33
2023-01-01T10:45:47.718Z,3357.5
2023-01-01T10:55:25.280Z,2558.33
2023-01-01T11:05:05.424Z,1094.17
2023-01-01T11:14:38.870Z,2485
2023-01-01T11:24:16.871Z,3075
2023-01-01T11:33:54.753Z,2697.5
2023-01-01T11:43:11.939Z,1962.5
2023-01-01T11:52:48.670Z,1620
2023-01-01T12:02:26.485Z,2345.83
2023-01-01T12:12:04.761Z,3819.17
2023-01-01T12:21:45.156Z,2639.17
2023-01-01T12:31:20.119Z,2484.17
2023-01-01T12:40:57.052Z,2925.83
2023-01-01T12:50:34.469Z,2928.33
2023-01-01T13:00:13.294Z,5694.17
2023-01-01T13:09:53.541Z,10073.33
2023-01-01T13:19:31.271Z,2849.17
2023-01-01T13:29:05.516Z,1595
2023-01-01T13:38:41.326Z,1298.33
2023-01-01T13:48:18.338Z,1194.17
2023-01-01T13:57:55.626Z,776.67
2023-01-01T14:07:50.535Z,663.33
2023-01-01T14:16:42.294Z,545
2023-01-01T14:26:19.527Z,472.5
2023-01-01T14:35:56.281Z,200.83
2023-01-01T14:45:33.465Z,160.83
2023-01-01T14:55:09.902Z,112.5
2023-01-01T15:04:47.004Z,67.5
2023-01-01T15:14:23.653Z,47.5
2023-01-01T15:24:00.521Z,25.83
2023-01-01T15:33:37.399Z,4.17
2023-01-01T15:43:15.431Z,0.83
2023-01-01T15:52:55.584Z,0
2023-01-01T16:02:29.317Z,0
2023-01-01T16:12:06.400Z,0
2023-01-01T16:21:43.949Z,0
2023-01-01T16:31:21.295Z,0
2023-01-01T16:40:58.549Z,0
2023-01-01T16:50:35.439Z,0
2023-01-01T17:00:12.582Z,0
2023-01-01T17:09:49.958Z,0
2023-01-01T17:19:26.931Z,0
2023-01-01T17:29:04.258Z,0
2023-01-01T17:38:41.621Z,0
2023-01-01T17:48:19.210Z,0
2023-01-01T17:57:56.506Z,0.83
2023-01-01T18:07:33.766Z,0
2023-01-01T18:17:10.886Z,0
2023-01-01T18:26:48.216Z,0
2023-01-01T18:36:26.119Z,0
2023-01-01T18:46:03.192Z,0
2023-01-01T18:55:40.212Z,0
2023-01-01T19:05:17.493Z,0
2023-01-01T19:14:54.976Z,0
2023-01-01T19:24:32.226Z,0
2023-01-01T19:34:14.363Z,0
2023-01-01T19:43:46.682Z,0
2023-01-01T19:53:24.224Z,0
2023-01-01T20:03:26.232Z,0
2023-01-01T20:12:38.521Z,0
2023-01-01T20:22:16.018Z,0
2023-01-01T20:31:53.661Z,0
2023-01-01T20:41:30.133Z,0
2023-01-01T20:51:07.025Z,0
2023-01-01T21:00:43.642Z,0
2023-01-01T21:10:19.928Z,0
2023-01-01T21:19:56.388Z,0
2023-01-01T21:29:34.147Z,0
2023-01-01T21:39:11.262Z,0
2023-01-01T21:48:48.874Z,0
2023-01-01T21:58:25.610Z,0
2023-01-01T22:08:02.916Z,0
2023-01-01T22:17:40.315Z,0
2023-01-01T22:27:17.156Z,0
2023-01-01T22:36:54.387Z,0
2023-01-01T22:46:32.461Z,0
2023-01-01T22:56:10.239Z,0
2023-01-01T23:05:49.544Z,0
2023-01-01T23:15:28.557Z,0
2023-01-01T23:25:06.937Z,0
2023-01-01T23:34:44.662Z,0
2023-01-01T23:44:22.872Z,0
2023-01-01T23:54:00.516Z,0
